sensor_id;sensor_type;location;lat;lon;timestamp;pressure;altitude;pressure_sealevel;temperature;humidity
19827;BME280;10074;52.018;4.726;2024-01-06T00:00:18;46349.59;;;-144.79;100.00
19827;BME280;10074;52.018;4.726;2024-01-06T00:05:19;46355.59;;;-144.79;100.00
19827;BME280;10074;52.018;4.726;2024-01-06T00:10:19;46369.63;;;-144.79;100.00
19827;BME280;10074;52.018;4.726;2024-01-06T00:15:20;46375.66;;;-144.79;100.00
19827;BME280;10074;52.018;4.726;2024-01-06T00:20:20;46381.66;;;-144.79;100.00
19827;BME280;10074;52.018;4.726;2024-01-06T00:25:20;46379.66;;;-144.79;100.00
19827;BME280;10074;52.018;4.726;2024-01-06T00:30:20;46381.66;;;-144.79;100.00
19827;BME280;10074;52.018;4.726;2024-01-06T00:35:21;46379.66;;;-144.79;100.00
19827;BME280;10074;52.018;4.726;2024-01-06T00:40:21;46377.66;;;-144.79;100.00
19827;BME280;10074;52.018;4.726;2024-01-06T00:45:21;46381.66;;;-144.79;100.00
19827;BME280;10074;52.018;4.726;2024-01-06T00:50:22;46377.66;;;-144.79;100.00
19827;BME280;10074;52.018;4.726;2024-01-06T00:55:23;46381.66;;;-144.79;100.00
19827;BME280;10074;52.018;4.726;2024-01-06T01:00:23;46373.66;;;-144.79;100.00
19827;BME280;10074;52.018;4.726;2024-01-06T01:05:24;46377.66;;;-144.79;100.00
19827;BME280;10074;52.018;4.726;2024-01-06T01:10:24;46379.66;;;-144.79;100.00
19827;BME280;10074;52.018;4.726;2024-01-06T01:15:24;46393.69;;;-144.79;100.00
19827;BME280;10074;52.018;4.726;2024-01-06T01:20:24;46377.66;;;-144.79;100.00
19827;BME280;10074;52.018;4.726;2024-01-06T01:25:25;46379.66;;;-144.79;100.00
19827;BME280;10074;52.018;4.726;2024-01-06T01:30:25;46379.66;;;-144.79;100.00
19827;BME280;10074;52.018;4.726;2024-01-06T01:35:25;46377.66;;;-144.79;100.00
19827;BME280;10074;52.018;4.726;2024-01-06T01:40:26;46375.66;;;-144.79;100.00
19827;BME280;10074;52.018;4.726;2024-01-06T01:45:26;46371.63;;;-144.79;100.00
19827;BME280;10074;52.018;4.726;2024-01-06T01:50:26;46371.63;;;-144.79;100.00
19827;BME280;10074;52.018;4.726;2024-01-06T01:55:28;46369.63;;;-144.79;100.00
19827;BME280;10074;52.018;4.726;2024-01-06T02:00:28;46369.63;;;-144.79;100.00
19827;BME280;10074;52.018;4.726;2024-01-06T02:05:28;46371.63;;;-144.79;100.00
19827;BME280;10074;52.018;4.726;2024-01-06T02:10:29;46375.66;;;-144.79;100.00
19827;BME280;10074;52.018;4.726;2024-01-06T02:15:29;46367.63;;;-144.79;100.00
19827;BME280;10074;52.018;4.726;2024-01-06T02:20:30;46367.63;;;-144.79;100.00
19827;BME280;10074;52.018;4.726;2024-01-06T02:25:31;46355.59;;;-144.79;100.00
19827;BME280;10074;52.018;4.726;2024-01-06T02:30:31;46359.59;;;-144.79;100.00
19827;BME280;10074;52.018;4.726;2024-01-06T02:35:31;46361.63;;;-144.79;100.00
19827;BME280;10074;52.018;4.726;2024-01-06T02:40:32;46355.59;;;-144.79;100.00
19827;BME280;10074;52.018;4.726;2024-01-06T02:45:32;46355.59;;;-144.79;100.00
19827;BME280;10074;52.018;4.726;2024-01-06T02:50:33;46359.59;;;-144.79;100.00
19827;BME280;10074;52.018;4.726;2024-01-06T02:55:33;46353.59;;;-144.79;100.00
19827;BME280;10074;52.018;4.726;2024-01-06T03:00:34;46357.59;;;-144.79;100.00
19827;BME280;10074;52.018;4.726;2024-01-06T03:05:34;46353.59;;;-144.79;100.00
19827;BME280;10074;52.018;4.726;2024-01-06T03:10:34;46347.56;;;-144.79;100.00
19827;BME280;10074;52.018;4.726;2024-01-06T03:15:36;46349.59;;;-144.79;100.00
19827;BME280;10074;52.018;4.726;2024-01-06T03:20:36;46351.59;;;-144.79;100.00
19827;BME280;10074;52.018;4.726;2024-01-06T03:25:37;46345.56;;;-144.79;100.00
19827;BME280;10074;52.018;4.726;2024-01-06T03:30:37;46343.56;;;-144.79;100.00
19827;BME280;10074;52.018;4.726;2024-01-06T03:35:37;46339.56;;;-144.79;100.00
19827;BME280;10074;52.018;4.726;2024-01-06T03:40:38;46347.56;;;-144.79;100.00
19827;BME280;10074;52.018;4.726;2024-01-06T03:45:38;46345.56;;;-144.79;100.00
19827;BME280;10074;52.018;4.726;2024-01-06T03:50:38;46343.56;;;-144.79;100.00
19827;BME280;10074;52.018;4.726;2024-01-06T03:55:38;46335.53;;;-144.79;100.00
19827;BME280;10074;52.018;4.726;2024-01-06T04:00:39;46345.56;;;-144.79;100.00
19827;BME280;10074;52.018;4.726;2024-01-06T04:05:39;46341.56;;;-144.79;100.00
19827;BME280;10074;52.018;4.726;2024-01-06T04:10:39;46343.56;;;-144.79;100.00
19827;BME280;10074;52.018;4.726;2024-01-06T04:15:41;46341.56;;;-144.79;100.00
19827;BME280;10074;52.018;4.726;2024-01-06T04:20:41;46341.56;;;-144.79;100.00
19827;BME280;10074;52.018;4.726;2024-01-06T04:25:42;46335.53;;;-144.79;100.00
19827;BME280;10074;52.018;4.726;2024-01-06T04:30:42;46339.56;;;-144.79;100.00
19827;BME280;10074;52.018;4.726;2024-01-06T04:35:42;46329.53;;;-144.79;100.00
19827;BME280;10074;52.018;4.726;2024-01-06T04:40:43;46319.50;;;-144.79;100.00
19827;BME280;10074;52.018;4.726;2024-01-06T04:45:43;46323.53;;;-144.79;100.00
19827;BME280;10074;52.018;4.726;2024-01-06T04:50:43;46307.47;;;-144.79;100.00
19827;BME280;10074;52.018;4.726;2024-01-06T04:55:44;46311.50;;;-144.79;100.00
19827;BME280;10074;52.018;4.726;2024-01-06T05:00:44;46301.47;;;-144.79;100.00
19827;BME280;10074;52.018;4.726;2024-01-06T05:05:44;46295.44;;;-144.79;100.00
19827;BME280;10074;52.018;4.726;2024-01-06T05:10:45;46289.44;;;-144.79;100.00
19827;BME280;10074;52.018;4.726;2024-01-06T05:15:46;46291.44;;;-144.79;100.00
19827;BME280;10074;52.018;4.726;2024-01-06T05:20:47;46291.44;;;-144.79;100.00
19827;BME280;10074;52.018;4.726;2024-01-06T05:25:48;46287.44;;;-144.79;100.00
19827;BME280;10074;52.018;4.726;2024-01-06T05:30:48;46275.41;;;-144.79;100.00
19827;BME280;10074;52.018;4.726;2024-01-06T05:35:48;46265.38;;;-144.79;100.00
19827;BME280;10074;52.018;4.726;2024-01-06T05:40:48;46271.38;;;-144.79;100.00
19827;BME280;10074;52.018;4.726;2024-01-06T05:45:49;46263.38;;;-144.79;100.00
19827;BME280;10074;52.018;4.726;2024-01-06T05:50:49;46263.38;;;-144.79;100.00
19827;BME280;10074;52.018;4.726;2024-01-06T05:55:50;46259.34;;;-144.79;100.00
19827;BME280;10074;52.018;4.726;2024-01-06T06:00:50;46263.38;;;-144.79;100.00
19827;BME280;10074;52.018;4.726;2024-01-06T06:05:51;46259.34;;;-144.79;100.00
19827;BME280;10074;52.018;4.726;2024-01-06T06:10:51;46259.34;;;-144.79;100.00
19827;BME280;10074;52.018;4.726;2024-01-06T06:16:01;46259.34;;;-144.79;100.00
19827;BME280;10074;52.018;4.726;2024-01-06T06:21:01;46257.34;;;-144.79;100.00
19827;BME280;10074;52.018;4.726;2024-01-06T06:26:07;46265.38;;;-144.79;100.00
19827;BME280;10074;52.018;4.726;2024-01-06T06:31:08;46257.34;;;-144.79;100.00
19827;BME280;10074;52.018;4.726;2024-01-06T06:36:08;46265.38;;;-144.79;100.00
19827;BME280;10074;52.018;4.726;2024-01-06T06:41:08;46259.34;;;-144.79;100.00
19827;BME280;10074;52.018;4.726;2024-01-06T06:46:08;46257.34;;;-144.79;100.00
19827;BME280;10074;52.018;4.726;2024-01-06T06:51:09;46257.34;;;-144.79;100.00
19827;BME280;10074;52.018;4.726;2024-01-06T06:56:10;46259.34;;;-144.79;100.00
19827;BME280;10074;52.018;4.726;2024-01-06T07:01:13;46251.34;;;-144.79;100.00
19827;BME280;10074;52.018;4.726;2024-01-06T07:06:14;46247.31;;;-144.79;100.00
19827;BME280;10074;52.018;4.726;2024-01-06T07:11:15;46239.31;;;-144.79;100.00
19827;BME280;10074;52.018;4.726;2024-01-06T07:16:18;46245.31;;;-144.79;100.00
19827;BME280;10074;52.018;4.726;2024-01-06T07:21:18;46247.31;;;-144.79;100.00
19827;BME280;10074;52.018;4.726;2024-01-06T07:26:19;46247.31;;;-144.79;100.00
19827;BME280;10074;52.018;4.726;2024-01-06T07:31:19;46239.31;;;-144.79;100.00
19827;BME280;10074;52.018;4.726;2024-01-06T07:36:19;46257.34;;;-144.79;100.00
19827;BME280;10074;52.018;4.726;2024-01-06T07:41:21;46255.34;;;-144.79;100.00
19827;BME280;10074;52.018;4.726;2024-01-06T07:46:21;46247.31;;;-144.79;100.00
19827;BME280;10074;52.018;4.726;2024-01-06T07:51:22;46253.34;;;-144.79;100.00
19827;BME280;10074;52.018;4.726;2024-01-06T07:56:22;46255.34;;;-144.79;100.00
19827;BME280;10074;52.018;4.726;2024-01-06T08:01:22;46255.34;;;-144.79;100.00
19827;BME280;10074;52.018;4.726;2024-01-06T08:06:23;46247.31;;;-144.79;100.00
19827;BME280;10074;52.018;4.726;2024-01-06T08:11:23;46263.38;;;-144.79;100.00
19827;BME280;10074;52.018;4.726;2024-01-06T08:16:23;46257.34;;;-144.79;100.00
19827;BME280;10074;52.018;4.726;2024-01-06T08:21:24;46263.38;;;-144.79;100.00
19827;BME280;10074;52.018;4.726;2024-01-06T08:26:24;46255.34;;;-144.79;100.00
19827;BME280;10074;52.018;4.726;2024-01-06T08:31:24;46259.34;;;-144.79;100.00
19827;BME280;10074;52.018;4.726;2024-01-06T08:36:25;46261.34;;;-144.79;100.00
19827;BME280;10074;52.018;4.726;2024-01-06T08:41:25;46263.38;;;-144.79;100.00
19827;BME280;10074;52.018;4.726;2024-01-06T08:46:26;46263.38;;;-144.79;100.00
19827;BME280;10074;52.018;4.726;2024-01-06T08:51:26;46267.38;;;-144.79;100.00
19827;BME280;10074;52.018;4.726;2024-01-06T08:56:26;46257.34;;;-144.79;100.00
19827;BME280;10074;52.018;4.726;2024-01-06T09:01:27;46265.38;;;-144.79;100.00
19827;BME280;10074;52.018;4.726;2024-01-06T09:06:28;46265.38;;;-144.79;100.00
19827;BME280;10074;52.018;4.726;2024-01-06T09:11:28;46263.38;;;-144.79;100.00
19827;BME280;10074;52.018;4.726;2024-01-06T09:16:28;46265.38;;;-144.79;100.00
19827;BME280;10074;52.018;4.726;2024-01-06T09:21:29;46267.38;;;-144.79;100.00
19827;BME280;10074;52.018;4.726;2024-01-06T09:26:29;46265.38;;;-144.79;100.00
19827;BME280;10074;52.018;4.726;2024-01-06T09:31:30;46273.38;;;-144.79;100.00
19827;BME280;10074;52.018;4.726;2024-01-06T09:36:31;46265.38;;;-144.79;100.00
19827;BME280;10074;52.018;4.726;2024-01-06T09:41:31;46263.38;;;-144.79;100.00
19827;BME280;10074;52.018;4.726;2024-01-06T09:46:32;46267.38;;;-144.79;100.00
19827;BME280;10074;52.018;4.726;2024-01-06T09:51:35;46273.38;;;-144.79;100.00
19827;BME280;10074;52.018;4.726;2024-01-06T09:56:39;46277.41;;;-144.79;100.00
19827;BME280;10074;52.018;4.726;2024-01-06T10:01:39;46271.38;;;-144.79;100.00
19827;BME280;10074;52.018;4.726;2024-01-06T10:06:41;46265.38;;;-144.79;100.00
19827;BME280;10074;52.018;4.726;2024-01-06T10:11:41;46271.38;;;-144.79;100.00
19827;BME280;10074;52.018;4.726;2024-01-06T10:16:42;46267.38;;;-144.79;100.00
19827;BME280;10074;52.018;4.726;2024-01-06T10:21:43;46267.38;;;-144.79;100.00
19827;BME280;10074;52.018;4.726;2024-01-06T10:26:45;46269.38;;;-144.79;100.00
19827;BME280;10074;52.018;4.726;2024-01-06T10:31:45;46271.38;;;-144.79;100.00
19827;BME280;10074;52.018;4.726;2024-01-06T10:36:46;46271.38;;;-144.79;100.00
19827;BME280;10074;52.018;4.726;2024-01-06T10:41:48;46271.38;;;-144.79;100.00
19827;BME280;10074;52.018;4.726;2024-01-06T10:46:49;46269.38;;;-144.79;100.00
19827;BME280;10074;52.018;4.726;2024-01-06T10:51:51;46271.38;;;-144.79;100.00
19827;BME280;10074;52.018;4.726;2024-01-06T10:56:53;46269.38;;;-144.79;100.00
19827;BME280;10074;52.018;4.726;2024-01-06T11:01:54;46267.38;;;-144.79;100.00
19827;BME280;10074;52.018;4.726;2024-01-06T11:06:56;46259.34;;;-144.79;100.00
19827;BME280;10074;52.018;4.726;2024-01-06T11:11:56;46255.34;;;-144.79;100.00
19827;BME280;10074;52.018;4.726;2024-01-06T11:16:57;46253.34;;;-144.79;100.00
19827;BME280;10074;52.018;4.726;2024-01-06T11:22:30;46249.34;;;-144.79;100.00
19827;BME280;10074;52.018;4.726;2024-01-06T11:27:35;46223.25;;;-144.79;100.00
19827;BME280;10074;52.018;4.726;2024-01-06T11:32:37;46235.28;;;-144.79;100.00
19827;BME280;10074;52.018;4.726;2024-01-06T11:37:50;46219.25;;;-144.79;100.00
19827;BME280;10074;52.018;4.726;2024-01-06T11:43:05;46229.28;;;-144.79;100.00
19827;BME280;10074;52.018;4.726;2024-01-06T11:48:08;46223.25;;;-144.79;100.00
19827;BME280;10074;52.018;4.726;2024-01-06T11:53:09;46233.28;;;-144.79;100.00
19827;BME280;10074;52.018;4.726;2024-01-06T11:58:10;46227.28;;;-144.79;100.00
19827;BME280;10074;52.018;4.726;2024-01-06T12:03:10;46235.28;;;-144.79;100.00
19827;BME280;10074;52.018;4.726;2024-01-06T12:08:11;46231.28;;;-144.79;100.00
19827;BME280;10074;52.018;4.726;2024-01-06T12:13:11;46235.28;;;-144.79;100.00
19827;BME280;10074;52.018;4.726;2024-01-06T12:18:12;46243.31;;;-144.79;100.00
19827;BME280;10074;52.018;4.726;2024-01-06T12:23:12;46243.31;;;-144.79;100.00
19827;BME280;10074;52.018;4.726;2024-01-06T12:28:15;46239.31;;;-144.79;100.00
19827;BME280;10074;52.018;4.726;2024-01-06T12:33:15;46243.31;;;-144.79;100.00
19827;BME280;10074;52.018;4.726;2024-01-06T12:38:19;46241.31;;;-144.79;100.00
19827;BME280;10074;52.018;4.726;2024-01-06T12:43:19;46229.28;;;-144.79;100.00
19827;BME280;10074;52.018;4.726;2024-01-06T12:48:20;46241.31;;;-144.79;100.00
19827;BME280;10074;52.018;4.726;2024-01-06T12:53:20;46243.31;;;-144.79;100.00
19827;BME280;10074;52.018;4.726;2024-01-06T12:58:20;46243.31;;;-144.79;100.00
19827;BME280;10074;52.018;4.726;2024-01-06T13:03:21;46249.34;;;-144.79;100.00
19827;BME280;10074;52.018;4.726;2024-01-06T13:08:21;46245.31;;;-144.79;100.00
19827;BME280;10074;52.018;4.726;2024-01-06T13:13:22;46243.31;;;-144.79;100.00
19827;BME280;10074;52.018;4.726;2024-01-06T13:18:22;46249.34;;;-144.79;100.00
19827;BME280;10074;52.018;4.726;2024-01-06T13:23:22;46249.34;;;-144.79;100.00
19827;BME280;10074;52.018;4.726;2024-01-06T13:28:23;46259.34;;;-144.79;100.00
19827;BME280;10074;52.018;4.726;2024-01-06T13:33:24;46253.34;;;-144.79;100.00
19827;BME280;10074;52.018;4.726;2024-01-06T13:38:24;46249.34;;;-144.79;100.00
19827;BME280;10074;52.018;4.726;2024-01-06T13:43:26;46245.31;;;-144.79;100.00
19827;BME280;10074;52.018;4.726;2024-01-06T13:48:26;46255.34;;;-144.79;100.00
19827;BME280;10074;52.018;4.726;2024-01-06T13:53:26;46257.34;;;-144.79;100.00
19827;BME280;10074;52.018;4.726;2024-01-06T13:58:27;46257.34;;;-144.79;100.00
19827;BME280;10074;52.018;4.726;2024-01-06T14:03:27;46253.34;;;-144.79;100.00
19827;BME280;10074;52.018;4.726;2024-01-06T14:08:28;46247.31;;;-144.79;100.00
19827;BME280;10074;52.018;4.726;2024-01-06T14:13:28;46249.34;;;-144.79;100.00
19827;BME280;10074;52.018;4.726;2024-01-06T14:18:28;46253.34;;;-144.79;100.00
19827;BME280;10074;52.018;4.726;2024-01-06T14:23:29;46251.34;;;-144.79;100.00
19827;BME280;10074;52.018;4.726;2024-01-06T14:28:32;46261.34;;;-144.79;100.00
19827;BME280;10074;52.018;4.726;2024-01-06T14:33:32;46247.31;;;-144.79;100.00
19827;BME280;10074;52.018;4.726;2024-01-06T14:38:35;46261.34;;;-144.79;100.00
19827;BME280;10074;52.018;4.726;2024-01-06T14:43:35;46255.34;;;-144.79;100.00
19827;BME280;10074;52.018;4.726;2024-01-06T14:58:56;46259.34;;;-144.79;100.00
19827;BME280;10074;52.018;4.726;2024-01-06T15:03:56;46255.34;;;-144.79;100.00
19827;BME280;10074;52.018;4.726;2024-01-06T15:08:57;46263.38;;;-144.79;100.00
19827;BME280;10074;52.018;4.726;2024-01-06T15:13:57;46259.34;;;-144.79;100.00
19827;BME280;10074;52.018;4.726;2024-01-06T15:18:57;46261.34;;;-144.79;100.00
19827;BME280;10074;52.018;4.726;2024-01-06T15:24:00;46251.34;;;-144.79;100.00
19827;BME280;10074;52.018;4.726;2024-01-06T15:29:01;46261.34;;;-144.79;100.00
19827;BME280;10074;52.018;4.726;2024-01-06T15:34:01;46251.34;;;-144.79;100.00
19827;BME280;10074;52.018;4.726;2024-01-06T15:39:01;46263.38;;;-144.79;100.00
19827;BME280;10074;52.018;4.726;2024-01-06T15:44:02;46259.34;;;-144.79;100.00
19827;BME280;10074;52.018;4.726;2024-01-06T15:49:03;46253.34;;;-144.79;100.00
19827;BME280;10074;52.018;4.726;2024-01-06T15:54:03;46261.34;;;-144.79;100.00
19827;BME280;10074;52.018;4.726;2024-01-06T15:59:03;46257.34;;;-144.79;100.00
19827;BME280;10074;52.018;4.726;2024-01-06T16:04:04;46263.38;;;-144.79;100.00
19827;BME280;10074;52.018;4.726;2024-01-06T16:09:04;46247.31;;;-144.79;100.00
19827;BME280;10074;52.018;4.726;2024-01-06T16:14:05;46249.34;;;-144.79;100.00
19827;BME280;10074;52.018;4.726;2024-01-06T16:19:06;46251.34;;;-144.79;100.00
19827;BME280;10074;52.018;4.726;2024-01-06T16:24:06;46247.31;;;-144.79;100.00
19827;BME280;10074;52.018;4.726;2024-01-06T16:29:07;46243.31;;;-144.79;100.00
19827;BME280;10074;52.018;4.726;2024-01-06T16:34:07;46245.31;;;-144.79;100.00
19827;BME280;10074;52.018;4.726;2024-01-06T16:39:07;46251.34;;;-144.79;100.00
19827;BME280;10074;52.018;4.726;2024-01-06T16:44:07;46255.34;;;-144.79;100.00
19827;BME280;10074;52.018;4.726;2024-01-06T16:49:08;46259.34;;;-144.79;100.00
19827;BME280;10074;52.018;4.726;2024-01-06T16:54:08;46251.34;;;-144.79;100.00
19827;BME280;10074;52.018;4.726;2024-01-06T16:59:10;46243.31;;;-144.79;100.00
19827;BME280;10074;52.018;4.726;2024-01-06T17:04:11;46249.34;;;-144.79;100.00
19827;BME280;10074;52.018;4.726;2024-01-06T17:09:12;46239.31;;;-144.79;100.00
19827;BME280;10074;52.018;4.726;2024-01-06T17:14:13;46241.31;;;-144.79;100.00
19827;BME280;10074;52.018;4.726;2024-01-06T17:19:14;46245.31;;;-144.79;100.00
19827;BME280;10074;52.018;4.726;2024-01-06T17:24:14;46245.31;;;-144.79;100.00
19827;BME280;10074;52.018;4.726;2024-01-06T17:29:15;46243.31;;;-144.79;100.00
19827;BME280;10074;52.018;4.726;2024-01-06T17:34:15;46247.31;;;-144.79;100.00
19827;BME280;10074;52.018;4.726;2024-01-06T17:39:15;46237.31;;;-144.79;100.00
19827;BME280;10074;52.018;4.726;2024-01-06T17:44:16;46247.31;;;-144.79;100.00
19827;BME280;10074;52.018;4.726;2024-01-06T17:49:17;46243.31;;;-144.79;100.00
19827;BME280;10074;52.018;4.726;2024-01-06T17:54:17;46243.31;;;-144.79;100.00
19827;BME280;10074;52.018;4.726;2024-01-06T17:59:17;46241.31;;;-144.79;100.00
19827;BME280;10074;52.018;4.726;2024-01-06T18:04:18;46247.31;;;-144.79;100.00
19827;BME280;10074;52.018;4.726;2024-01-06T18:09:18;46253.34;;;-144.79;100.00
19827;BME280;10074;52.018;4.726;2024-01-06T18:14:19;46247.31;;;-144.79;100.00
19827;BME280;10074;52.018;4.726;2024-01-06T18:19:19;46249.34;;;-144.79;100.00
19827;BME280;10074;52.018;4.726;2024-01-06T18:24:19;46253.34;;;-144.79;100.00
19827;BME280;10074;52.018;4.726;2024-01-06T18:29:20;46247.31;;;-144.79;100.00
19827;BME280;10074;52.018;4.726;2024-01-06T18:34:22;46249.34;;;-144.79;100.00
19827;BME280;10074;52.018;4.726;2024-01-06T18:39:22;46255.34;;;-144.79;100.00
19827;BME280;10074;52.018;4.726;2024-01-06T18:44:23;46257.34;;;-144.79;100.00
19827;BME280;10074;52.018;4.726;2024-01-06T18:49:24;46249.34;;;-144.79;100.00
19827;BME280;10074;52.018;4.726;2024-01-06T18:54:24;46245.31;;;-144.79;100.00
19827;BME280;10074;52.018;4.726;2024-01-06T18:59:24;46247.31;;;-144.79;100.00
19827;BME280;10074;52.018;4.726;2024-01-06T19:04:25;46245.31;;;-144.79;100.00
19827;BME280;10074;52.018;4.726;2024-01-06T19:09:25;46253.34;;;-144.79;100.00
19827;BME280;10074;52.018;4.726;2024-01-06T19:14:26;46249.34;;;-144.79;100.00
19827;BME280;10074;52.018;4.726;2024-01-06T19:19:26;46247.31;;;-144.79;100.00
19827;BME280;10074;52.018;4.726;2024-01-06T19:24:27;46249.34;;;-144.79;100.00
19827;BME280;10074;52.018;4.726;2024-01-06T19:29:27;46255.34;;;-144.79;100.00
19827;BME280;10074;52.018;4.726;2024-01-06T19:34:28;46263.38;;;-144.79;100.00
19827;BME280;10074;52.018;4.726;2024-01-06T19:39:29;46247.31;;;-144.79;100.00
19827;BME280;10074;52.018;4.726;2024-01-06T19:44:30;46255.34;;;-144.79;100.00
19827;BME280;10074;52.018;4.726;2024-01-06T19:49:30;46249.34;;;-144.79;100.00
19827;BME280;10074;52.018;4.726;2024-01-06T19:54:30;46261.34;;;-144.79;100.00
19827;BME280;10074;52.018;4.726;2024-01-06T19:59:34;46255.34;;;-144.79;100.00
19827;BME280;10074;52.018;4.726;2024-01-06T20:04:34;46251.34;;;-144.79;100.00
19827;BME280;10074;52.018;4.726;2024-01-06T20:09:35;46251.34;;;-144.79;100.00
19827;BME280;10074;52.018;4.726;2024-01-06T20:14:35;46251.34;;;-144.79;100.00
19827;BME280;10074;52.018;4.726;2024-01-06T20:19:36;46251.34;;;-144.79;100.00
19827;BME280;10074;52.018;4.726;2024-01-06T20:24:39;46255.34;;;-144.79;100.00
19827;BME280;10074;52.018;4.726;2024-01-06T20:29:40;46257.34;;;-144.79;100.00
19827;BME280;10074;52.018;4.726;2024-01-06T20:34:40;46251.34;;;-144.79;100.00
19827;BME280;10074;52.018;4.726;2024-01-06T20:39:42;46257.34;;;-144.79;100.00
19827;BME280;10074;52.018;4.726;2024-01-06T20:44:43;46255.34;;;-144.79;100.00
19827;BME280;10074;52.018;4.726;2024-01-06T20:49:43;46255.34;;;-144.79;100.00
19827;BME280;10074;52.018;4.726;2024-01-06T20:54:43;46253.34;;;-144.79;100.00
19827;BME280;10074;52.018;4.726;2024-01-06T20:59:44;46251.34;;;-144.79;100.00
19827;BME280;10074;52.018;4.726;2024-01-06T21:04:45;46255.34;;;-144.79;100.00
19827;BME280;10074;52.018;4.726;2024-01-06T21:09:45;46253.34;;;-144.79;100.00
19827;BME280;10074;52.018;4.726;2024-01-06T21:14:45;46257.34;;;-144.79;100.00
19827;BME280;10074;52.018;4.726;2024-01-06T21:19:46;46253.34;;;-144.79;100.00
19827;BME280;10074;52.018;4.726;2024-01-06T21:24:46;46253.34;;;-144.79;100.00
19827;BME280;10074;52.018;4.726;2024-01-06T21:29:46;46257.34;;;-144.79;100.00
19827;BME280;10074;52.018;4.726;2024-01-06T21:34:47;46257.34;;;-144.79;100.00
19827;BME280;10074;52.018;4.726;2024-01-06T21:39:47;46259.34;;;-144.79;100.00
19827;BME280;10074;52.018;4.726;2024-01-06T21:44:47;46255.34;;;-144.79;100.00
19827;BME280;10074;52.018;4.726;2024-01-06T21:49:47;46255.34;;;-144.79;100.00
19827;BME280;10074;52.018;4.726;2024-01-06T21:54:48;46253.34;;;-144.79;100.00
19827;BME280;10074;52.018;4.726;2024-01-06T21:59:48;46261.34;;;-144.79;100.00
19827;BME280;10074;52.018;4.726;2024-01-06T22:04:49;46247.31;;;-144.79;100.00
19827;BME280;10074;52.018;4.726;2024-01-06T22:09:49;46247.31;;;-144.79;100.00
19827;BME280;10074;52.018;4.726;2024-01-06T22:14:49;46247.31;;;-144.79;100.00
19827;BME280;10074;52.018;4.726;2024-01-06T22:19:49;46253.34;;;-144.79;100.00
19827;BME280;10074;52.018;4.726;2024-01-06T22:24:50;46257.34;;;-144.79;100.00
19827;BME280;10074;52.018;4.726;2024-01-06T22:29:50;46255.34;;;-144.79;100.00
19827;BME280;10074;52.018;4.726;2024-01-06T22:34:50;46247.31;;;-144.79;100.00
19827;BME280;10074;52.018;4.726;2024-01-06T22:39:50;46261.34;;;-144.79;100.00
19827;BME280;10074;52.018;4.726;2024-01-06T22:44:51;46257.34;;;-144.79;100.00
19827;BME280;10074;52.018;4.726;2024-01-06T22:49:51;46253.34;;;-144.79;100.00
19827;BME280;10074;52.018;4.726;2024-01-06T22:54:51;46255.34;;;-144.79;100.00
19827;BME280;10074;52.018;4.726;2024-01-06T22:59:52;46253.34;;;-144.79;100.00
19827;BME280;10074;52.018;4.726;2024-01-06T23:04:52;46251.34;;;-144.79;100.00
19827;BME280;10074;52.018;4.726;2024-01-06T23:09:58;46251.34;;;-144.79;100.00
19827;BME280;10074;52.018;4.726;2024-01-06T23:14:58;46251.34;;;-144.79;100.00
19827;BME280;10074;52.018;4.726;2024-01-06T23:19:58;46257.34;;;-144.79;100.00
19827;BME280;10074;52.018;4.726;2024-01-06T23:24:58;46255.34;;;-144.79;100.00
19827;BME280;10074;52.018;4.726;2024-01-06T23:29:59;46253.34;;;-144.79;100.00
19827;BME280;10074;52.018;4.726;2024-01-06T23:34:59;46251.34;;;-144.79;100.00
19827;BME280;10074;52.018;4.726;2024-01-06T23:39:59;46259.34;;;-144.79;100.00
19827;BME280;10074;52.018;4.726;2024-01-06T23:45:00;46247.31;;;-144.79;100.00
19827;BME280;10074;52.018;4.726;2024-01-06T23:50:00;46255.34;;;-144.79;100.00
19827;BME280;10074;52.018;4.726;2024-01-06T23:55:03;46257.34;;;-144.79;100.00
